Time;durP1;ratioP1;P1;durP2;ratioP2;P2;SDS_P1;SDS_P2;PMS_P1;PMS_P2;Temp;Humidity;BMP_temperature;BMP_pressure;BME280_temperature;BME280_humidity;BME280_pressure;Samples;Min_cycle;Max_cycle;Signal;HPM_P1;HPM_P2
2022/09/29 00:00:36;;;;;;;7.57;3.40;;;7.40;99.90;;;;;;5061009;28;20068;-56
2022/09/29 00:03:02;;;;;;;6.45;3.20;;;7.50;99.90;;;;;;5060817;28;20460;-57
2022/09/29 00:05:28;;;;;;;7.70;3.20;;;7.50;99.90;;;;;;5061068;28;20048;-57
2022/09/29 00:07:53;;;;;;;6.00;3.05;;;7.50;99.90;;;;;;5060264;28;20063;-58
2022/09/29 00:10:19;;;;;;;6.07;2.75;;;7.50;99.90;;;;;;5060860;28;20112;-58
2022/09/29 00:12:45;;;;;;;5.57;2.95;;;7.50;99.90;;;;;;5060131;28;20037;-57
2022/09/29 00:15:11;;;;;;;7.07;3.47;;;7.50;99.90;;;;;;5061131;28;20041;-57
2022/09/29 00:17:36;;;;;;;6.55;3.13;;;7.50;99.90;;;;;;5060494;28;20043;-57
2022/09/29 00:20:03;;;;;;;5.90;3.60;;;7.50;99.90;;;;;;5060479;28;20048;-58
2022/09/29 00:22:29;;;;;;;6.57;3.17;;;7.40;99.90;;;;;;5059489;28;20075;-58
2022/09/29 00:24:55;;;;;;;6.82;3.70;;;7.40;99.90;;;;;;5059906;28;20094;-58
2022/09/29 00:27:20;;;;;;;6.90;3.80;;;7.40;99.90;;;;;;5060783;28;20037;-57
2022/09/29 00:29:46;;;;;;;7.22;3.67;;;7.50;99.90;;;;;;5060189;28;20043;-58
2022/09/29 00:32:12;;;;;;;7.38;3.90;;;7.50;99.90;;;;;;5060629;28;20037;-57
2022/09/29 00:34:37;;;;;;;6.30;3.72;;;7.40;99.90;;;;;;5042077;28;20072;-57
2022/09/29 00:37:03;;;;;;;6.43;3.53;;;7.40;99.90;;;;;;5060197;28;20045;-57
2022/09/29 00:39:29;;;;;;;7.25;4.22;;;7.40;99.90;;;;;;5059630;28;20049;-57
2022/09/29 00:41:56;;;;;;;7.78;4.22;;;7.40;99.90;;;;;;5079543;28;20506;-57
2022/09/29 00:44:22;;;;;;;7.82;4.30;;;7.30;99.90;;;;;;5080497;28;20119;-57
2022/09/29 00:47:03;;;;;;;7.10;4.43;;;7.40;99.90;;;;;;5079743;28;20048;-57
2022/09/29 00:49:32;;;;;;;10.65;4.95;;;7.30;99.90;;;;;;5080299;28;20064;-57
2022/09/29 00:52:14;;;;;;;7.57;4.05;;;7.30;99.90;;;;;;5060516;28;20045;-57
2022/09/29 00:54:55;;;;;;;7.68;3.88;;;7.30;99.90;;;;;;5059423;28;20037;-58
2022/09/29 00:57:26;;;;;;;7.20;4.00;;;7.30;99.90;;;;;;5060262;28;20048;-57
2022/09/29 01:00:00;;;;;;;7.25;4.00;;;7.30;99.90;;;;;;5059245;28;20102;-58
2022/09/29 01:02:29;;;;;;;7.97;4.32;;;7.30;99.90;;;;;;5058834;28;20056;-57
2022/09/29 01:04:55;;;;;;;7.65;4.05;;;7.30;99.90;;;;;;5059699;28;20056;-57
2022/09/29 01:07:23;;;;;;;7.75;4.28;;;7.30;99.90;;;;;;5059296;28;20096;-59
2022/09/29 01:09:52;;;;;;;7.40;4.20;;;7.20;99.90;;;;;;5059714;28;20040;-57
2022/09/29 01:12:19;;;;;;;6.53;4.38;;;7.20;99.90;;;;;;5059141;28;20037;-57
2022/09/29 01:14:46;;;;;;;7.18;4.25;;;7.30;99.90;;;;;;5059687;28;20049;-58
2022/09/29 01:17:12;;;;;;;7.93;4.40;;;7.20;99.90;;;;;;5058678;28;20033;-57
2022/09/29 01:19:52;;;;;;;6.93;4.45;;;7.20;99.90;;;;;;5059483;28;20622;-57
2022/09/29 01:22:52;;;;;;;7.40;4.75;;;7.10;99.90;;;;;;5059441;28;20040;-57
2022/09/29 01:25:52;;;;;;;7.05;4.50;;;7.10;99.90;;;;;;5057521;28;20081;-57
2022/09/29 01:28:29;;;;;;;7.90;5.13;;;7.20;99.90;;;;;;5059661;28;20430;-58
2022/09/29 01:31:04;;;;;;;8.27;4.90;;;7.10;99.90;;;;;;5059686;28;20128;-56
2022/09/29 01:33:54;;;;;;;7.25;4.32;;;7.10;99.90;;;;;;5058418;28;20044;-57
2022/09/29 01:36:26;;;;;;;8.82;4.72;;;7.10;99.90;;;;;;5059267;28;20041;-57
2022/09/29 01:38:55;;;;;;;8.60;4.72;;;7.00;99.90;;;;;;5058895;28;20045;-57
2022/09/29 01:41:37;;;;;;;7.65;4.93;;;7.00;99.90;;;;;;5075452;28;20128;-57
2022/09/29 01:44:07;;;;;;;8.13;4.85;;;7.00;99.90;;;;;;5077833;28;20074;-57
2022/09/29 01:46:38;;;;;;;8.70;4.82;;;7.00;99.90;;;;;;5078689;28;20058;-58
2022/09/29 01:49:05;;;;;;;8.80;5.28;;;7.00;99.90;;;;;;5079211;28;20048;-58
2022/09/29 01:51:39;;;;;;;8.40;5.00;;;7.00;99.90;;;;;;5063287;28;20049;-58
2022/09/29 01:54:18;;;;;;;10.13;5.40;;;7.10;99.90;;;;;;5058990;28;20059;-58
2022/09/29 01:57:13;;;;;;;9.57;5.45;;;7.20;99.90;;;;;;5059320;28;20516;-57
2022/09/29 01:59:48;;;;;;;7.97;5.15;;;7.10;99.90;;;;;;5058449;28;20056;-57
2022/09/29 02:02:25;;;;;;;9.45;5.53;;;7.00;99.90;;;;;;5059149;28;20040;-58
2022/09/29 02:04:57;;;;;;;8.30;5.85;;;7.00;99.90;;;;;;5058809;28;20412;-57
2022/09/29 02:07:34;;;;;;;9.88;5.95;;;7.00;99.90;;;;;;5058314;28;20123;-58
2022/09/29 02:10:05;;;;;;;9.25;5.82;;;7.00;99.90;;;;;;5059059;28;20041;-58
2022/09/29 02:12:35;;;;;;;10.13;5.63;;;7.00;99.90;;;;;;5058405;28;20424;-58
2022/09/29 02:15:06;;;;;;;9.60;5.88;;;6.90;99.90;;;;;;5059143;28;20048;-58
2022/09/29 02:17:38;;;;;;;9.55;6.13;;;6.90;99.90;;;;;;5058533;28;20060;-57
2022/09/29 02:20:04;;;;;;;10.32;6.43;;;7.00;99.90;;;;;;5056897;28;20074;-57
2022/09/29 02:22:31;;;;;;;12.32;6.13;;;7.00;99.90;;;;;;5059293;28;20033;-57
2022/09/29 02:25:00;;;;;;;10.80;6.63;;;6.90;99.90;;;;;;5058002;28;20071;-58
2022/09/29 02:27:28;;;;;;;10.02;6.40;;;6.90;99.90;;;;;;5059004;28;20098;-57
2022/09/29 02:29:54;;;;;;;9.52;6.60;;;6.90;99.90;;;;;;5059073;28;20083;-57
2022/09/29 02:32:20;;;;;;;8.60;6.30;;;7.00;99.90;;;;;;5062639;28;20049;-58
2022/09/29 02:34:49;;;;;;;9.18;6.05;;;6.90;99.90;;;;;;5062496;28;20116;-58
2022/09/29 02:37:32;;;;;;;9.90;6.00;;;7.00;99.90;;;;;;5062128;28;20064;-58
2022/09/29 02:40:00;;;;;;;9.43;6.38;;;6.90;99.90;;;;;;5067561;28;20094;-57
2022/09/29 02:42:58;;;;;;;8.98;5.72;;;7.00;99.90;;;;;;5081528;28;20080;-55
2022/09/29 02:45:43;;;;;;;9.23;6.30;;;6.80;99.90;;;;;;5074227;28;20063;-58
2022/09/29 02:48:18;;;;;;;9.25;6.50;;;6.80;99.90;;;;;;5082443;28;20578;-57
2022/09/29 02:51:25;;;;;;;9.60;5.97;;;6.90;99.90;;;;;;5071233;28;20060;-58
2022/09/29 02:53:56;;;;;;;18.77;7.43;;;6.90;99.90;;;;;;5062642;28;20120;-58
2022/09/29 02:56:22;;;;;;;22.27;6.82;;;6.70;99.90;;;;;;5061912;28;20045;-57
2022/09/29 02:59:14;;;;;;;12.15;6.88;;;6.70;99.90;;;;;;5061508;28;20132;-58
2022/09/29 03:01:51;;;;;;;18.90;6.95;;;6.80;99.90;;;;;;5062532;28;20044;-57
2022/09/29 03:04:18;;;;;;;14.80;6.72;;;6.70;99.90;;;;;;5060371;28;20040;-57
2022/09/29 03:06:44;;;;;;;12.88;7.20;;;6.60;99.90;;;;;;5062385;28;20041;-58
2022/09/29 03:09:10;;;;;;;23.75;7.63;;;6.80;99.90;;;;;;5061384;28;20071;-57
2022/09/29 03:11:35;;;;;;;21.45;7.03;;;6.80;99.90;;;;;;5061153;28;20091;-58
2022/09/29 03:14:02;;;;;;;25.35;6.93;;;6.70;99.90;;;;;;5061931;28;20056;-57
2022/09/29 03:16:28;;;;;;;11.98;6.80;;;6.60;99.90;;;;;;5061329;28;20080;-58
2022/09/29 03:18:55;;;;;;;14.63;6.20;;;6.60;99.90;;;;;;5062185;28;20083;-58
2022/09/29 03:21:21;;;;;;;19.67;6.45;;;6.70;99.90;;;;;;5060963;28;20064;-57
2022/09/29 03:23:47;;;;;;;13.13;6.57;;;6.60;99.90;;;;;;5061906;28;20041;-58
2022/09/29 03:26:13;;;;;;;11.48;5.25;;;6.70;99.90;;;;;;5060614;28;20045;-57
2022/09/29 03:28:39;;;;;;;11.32;6.43;;;6.70;99.90;;;;;;5059984;28;20040;-58
2022/09/29 03:31:06;;;;;;;13.52;6.57;;;6.60;99.90;;;;;;5061893;28;20045;-57
2022/09/29 03:33:32;;;;;;;10.80;6.57;;;6.50;99.90;;;;;;5059552;28;20052;-57
2022/09/29 03:35:58;;;;;;;16.17;6.53;;;6.50;99.90;;;;;;5061677;28;20045;-58
2022/09/29 03:38:23;;;;;;;8.88;6.30;;;6.50;99.90;;;;;;5060705;28;20101;-58
2022/09/29 03:40:49;;;;;;;10.73;6.03;;;6.70;99.90;;;;;;5072891;28;20087;-58
2022/09/29 03:43:15;;;;;;;9.27;6.78;;;6.50;99.90;;;;;;5081145;28;20117;-57
2022/09/29 03:45:48;;;;;;;9.57;7.00;;;6.50;99.90;;;;;;5081214;28;20080;-58
2022/09/29 03:48:14;;;;;;;8.88;6.07;;;6.50;99.90;;;;;;5080183;28;20036;-57
2022/09/29 03:50:40;;;;;;;9.05;6.40;;;6.60;99.90;;;;;;5072306;28;20147;-58
2022/09/29 03:53:05;;;;;;;8.95;6.00;;;6.60;99.90;;;;;;5061151;28;20082;-58
2022/09/29 03:55:31;;;;;;;9.02;6.28;;;6.50;99.90;;;;;;5060356;28;20704;-58
2022/09/29 03:57:57;;;;;;;9.20;6.40;;;6.60;99.90;;;;;;5060753;28;20068;-58
2022/09/29 04:00:22;;;;;;;9.23;6.47;;;6.60;99.90;;;;;;5060733;28;20049;-57
2022/09/29 04:02:48;;;;;;;9.35;6.80;;;6.40;99.90;;;;;;5060711;28;20049;-58
2022/09/29 04:05:14;;;;;;;9.23;6.60;;;6.40;99.90;;;;;;5060871;28;20059;-56
2022/09/29 04:07:40;;;;;;;9.90;7.20;;;6.40;99.90;;;;;;5059878;28;20073;-57
2022/09/29 04:10:06;;;;;;;9.60;6.90;;;6.40;99.90;;;;;;5060844;28;20052;-57
2022/09/29 04:12:32;;;;;;;9.65;6.40;;;6.40;99.90;;;;;;5059955;28;20068;-58
2022/09/29 04:14:57;;;;;;;10.07;7.00;;;6.40;99.90;;;;;;5060833;28;20037;-58
2022/09/29 04:17:23;;;;;;;10.18;7.05;;;6.40;99.90;;;;;;5058909;28;20053;-57
2022/09/29 04:19:49;;;;;;;10.38;7.40;;;6.40;99.90;;;;;;5060289;28;20048;-58
2022/09/29 04:22:17;;;;;;;9.82;7.40;;;6.50;99.90;;;;;;5060328;28;20591;-58
2022/09/29 04:24:43;;;;;;;9.68;6.68;;;6.40;99.90;;;;;;5058415;28;20053;-58
2022/09/29 04:27:09;;;;;;;9.88;7.35;;;6.40;99.90;;;;;;5060725;28;20060;-58
2022/09/29 04:29:34;;;;;;;9.82;7.05;;;6.40;99.90;;;;;;5059895;28;20041;-57
2022/09/29 04:32:00;;;;;;;12.45;7.05;;;6.40;99.90;;;;;;5060545;28;20121;-57
2022/09/29 04:34:26;;;;;;;10.02;7.68;;;6.40;99.90;;;;;;5060054;28;20492;-58
2022/09/29 04:36:52;;;;;;;11.57;6.93;;;6.40;99.90;;;;;;5060211;28;20051;-58
2022/09/29 04:39:17;;;;;;;11.73;7.93;;;6.30;99.90;;;;;;5060001;28;20045;-57
2022/09/29 04:41:43;;;;;;;10.27;7.47;;;6.30;99.90;;;;;;5079031;28;20048;-55
2022/09/29 04:44:09;;;;;;;10.63;7.95;;;6.30;99.90;;;;;;5080498;28;20071;-58
2022/09/29 04:46:35;;;;;;;10.27;7.63;;;6.40;99.90;;;;;;5078072;28;20059;-60
2022/09/29 04:49:01;;;;;;;10.80;7.63;;;6.40;99.90;;;;;;5080334;28;20123;-58
2022/09/29 04:51:26;;;;;;;10.57;8.10;;;6.30;99.90;;;;;;5064521;28;20048;-57
2022/09/29 04:53:52;;;;;;;11.10;8.10;;;6.20;99.90;;;;;;5059037;28;20065;-58
2022/09/29 04:56:18;;;;;;;11.70;8.65;;;6.30;99.90;;;;;;5059741;28;20040;-57
2022/09/29 04:58:43;;;;;;;11.32;8.52;;;6.30;99.90;;;;;;5057926;28;20052;-57
2022/09/29 05:01:14;;;;;;;10.85;7.78;;;6.30;99.90;;;;;;5058683;28;20140;-58
2022/09/29 05:03:40;;;;;;;11.68;8.38;;;6.10;99.90;;;;;;5057967;28;20465;-58
2022/09/29 05:06:08;;;;;;;14.13;8.95;;;6.20;99.90;;;;;;5059964;28;20037;-57
2022/09/29 05:08:34;;;;;;;11.93;9.32;;;6.20;99.90;;;;;;5059198;28;20086;-58
2022/09/29 05:11:05;;;;;;;11.10;8.25;;;6.30;99.90;;;;;;5059364;28;20516;-57
2022/09/29 05:13:31;;;;;;;11.70;9.10;;;6.30;99.90;;;;;;5059588;28;20077;-56
2022/09/29 05:15:56;;;;;;;15.18;9.32;;;6.30;99.90;;;;;;5059002;28;20048;-57
2022/09/29 05:18:23;;;;;;;12.55;9.02;;;6.30;99.90;;;;;;5070966;28;20049;-57
2022/09/29 05:20:49;;;;;;;13.63;9.13;;;6.30;99.90;;;;;;5077239;28;20051;-57
2022/09/29 05:23:14;;;;;;;15.77;9.30;;;6.30;99.90;;;;;;5079509;28;20117;-56
2022/09/29 05:25:40;;;;;;;12.55;9.00;;;6.40;99.90;;;;;;5078956;28;20518;-57
2022/09/29 05:28:06;;;;;;;16.40;9.23;;;6.40;99.90;;;;;;5079539;28;20127;-58
2022/09/29 05:30:31;;;;;;;14.88;9.38;;;6.40;99.90;;;;;;5077809;28;20049;-57
2022/09/29 05:32:57;;;;;;;13.30;9.10;;;6.30;99.90;;;;;;5078663;28;20040;-57
2022/09/29 05:35:23;;;;;;;14.35;9.38;;;6.30;99.90;;;;;;5079705;28;20062;-57
2022/09/29 05:37:49;;;;;;;14.57;9.25;;;6.30;99.90;;;;;;5078493;28;20122;-57
2022/09/29 05:40:15;;;;;;;17.33;10.50;;;6.30;99.90;;;;;;5078998;28;20092;-57
2022/09/29 05:42:41;;;;;;;12.55;9.13;;;6.30;99.90;;;;;;5078747;28;20064;-57
2022/09/29 05:45:09;;;;;;;13.05;9.50;;;6.30;99.90;;;;;;5079391;28;20051;-57
2022/09/29 05:47:35;;;;;;;12.93;9.95;;;6.30;99.90;;;;;;5077066;28;20044;-57
2022/09/29 05:50:02;;;;;;;14.95;9.65;;;6.30;99.90;;;;;;5075663;28;20033;-57
2022/09/29 05:52:28;;;;;;;14.55;9.50;;;6.30;99.90;;;;;;5059599;28;20051;-57
2022/09/29 05:54:53;;;;;;;13.27;8.63;;;6.30;99.90;;;;;;5058432;28;20049;-57
2022/09/29 05:57:19;;;;;;;14.48;9.27;;;6.40;99.90;;;;;;5057934;28;20040;-58
2022/09/29 05:59:45;;;;;;;11.25;7.70;;;6.40;99.90;;;;;;5057933;28;20049;-57
2022/09/29 06:02:10;;;;;;;10.77;8.70;;;6.40;99.90;;;;;;5058575;28;20049;-57
2022/09/29 06:04:36;;;;;;;13.30;9.45;;;6.40;99.90;;;;;;5062829;28;20096;-57
2022/09/29 06:07:03;;;;;;;11.60;9.25;;;6.40;99.90;;;;;;5063545;28;20049;-57
2022/09/29 06:09:29;;;;;;;10.50;8.43;;;6.40;99.90;;;;;;5061896;28;20045;-57
2022/09/29 06:11:54;;;;;;;11.40;8.48;;;6.30;99.90;;;;;;5061152;28;20666;-57
2022/09/29 06:14:20;;;;;;;11.77;9.10;;;6.40;99.90;;;;;;5044062;28;20049;-57
2022/09/29 06:16:46;;;;;;;11.82;8.93;;;6.40;99.90;;;;;;5059442;28;20041;-58
2022/09/29 06:19:12;;;;;;;12.75;8.93;;;6.40;99.90;;;;;;5060151;28;20530;-57
2022/09/29 06:21:38;;;;;;;12.10;8.57;;;6.50;99.90;;;;;;5060903;28;20049;-57
2022/09/29 06:24:06;;;;;;;12.57;9.48;;;6.50;99.90;;;;;;5043418;28;20076;-58
2022/09/29 06:26:32;;;;;;;12.60;9.38;;;6.50;99.90;;;;;;5061470;28;20089;-56
2022/09/29 06:28:57;;;;;;;11.45;8.93;;;6.40;99.90;;;;;;5060658;28;20068;-58
2022/09/29 06:31:26;;;;;;;12.38;9.45;;;6.40;99.90;;;;;;5061431;28;20060;-57
2022/09/29 06:33:52;;;;;;;12.90;9.38;;;6.50;99.90;;;;;;5060780;28;20045;-57
2022/09/29 06:39:11;;;;;;;12.52;9.77;;;6.60;99.90;;;;;;5061084;28;20049;-57
2022/09/29 06:41:37;;;;;;;15.25;9.82;;;6.60;99.90;;;;;;5077671;28;20048;-58
2022/09/29 06:44:02;;;;;;;13.13;10.48;;;6.70;99.90;;;;;;5081261;28;20044;-57
2022/09/29 06:46:28;;;;;;;13.85;10.75;;;6.70;99.90;;;;;;5080540;28;20052;-58
2022/09/29 06:48:55;;;;;;;13.77;11.05;;;6.70;99.90;;;;;;5081933;28;20356;-57
2022/09/29 06:51:24;;;;;;;13.25;10.50;;;6.80;99.90;;;;;;5080685;28;20048;-58
2022/09/29 06:53:50;;;;;;;14.52;10.55;;;6.70;99.90;;;;;;5079953;28;20048;-57
2022/09/29 06:56:17;;;;;;;14.18;10.48;;;6.80;99.90;;;;;;5080543;28;20045;-57
2022/09/29 06:58:44;;;;;;;13.63;9.70;;;6.90;99.90;;;;;;5062406;28;20061;-57
2022/09/29 07:01:10;;;;;;;12.95;9.82;;;7.00;99.90;;;;;;5081358;28;20135;-57
2022/09/29 07:03:36;;;;;;;13.50;9.98;;;7.00;99.90;;;;;;5079892;28;20048;-58
2022/09/29 07:06:07;;;;;;;14.65;10.82;;;7.00;99.90;;;;;;5080626;28;20430;-57
2022/09/29 07:08:37;;;;;;;13.02;10.43;;;7.10;99.90;;;;;;5080277;28;20219;-57
2022/09/29 07:11:05;;;;;;;16.60;10.15;;;7.10;99.90;;;;;;5080588;28;20048;-57
2022/09/29 07:13:31;;;;;;;14.48;11.20;;;7.30;99.90;;;;;;5081510;28;20055;-56
2022/09/29 07:16:05;;;;;;;13.57;10.95;;;7.30;99.90;;;;;;5077813;28;20040;-58
2022/09/29 07:18:32;;;;;;;14.38;10.75;;;7.40;99.90;;;;;;5076616;28;20435;-57
2022/09/29 07:20:57;;;;;;;17.08;12.25;;;7.50;99.90;;;;;;5076901;28;20056;-57
2022/09/29 07:23:23;;;;;;;15.88;12.30;;;7.50;99.90;;;;;;5077895;28;20082;-58
2022/09/29 07:25:50;;;;;;;15.98;12.02;;;7.60;99.90;;;;;;5077598;28;20052;-57
2022/09/29 07:28:16;;;;;;;18.15;13.00;;;7.60;99.90;;;;;;5077495;28;20060;-58
2022/09/29 07:30:42;;;;;;;20.35;13.43;;;7.80;99.90;;;;;;5076519;28;20083;-57
2022/09/29 07:33:07;;;;;;;19.77;14.18;;;7.80;99.90;;;;;;5076377;28;20044;-58
2022/09/29 07:35:33;;;;;;;16.85;12.75;;;7.90;99.90;;;;;;5078030;28;20063;-57
2022/09/29 07:37:59;;;;;;;17.42;13.95;;;8.00;99.90;;;;;;5077099;28;20072;-58
2022/09/29 07:40:25;;;;;;;21.08;15.23;;;8.00;99.90;;;;;;5076148;28;20525;-58
2022/09/29 07:42:50;;;;;;;19.08;14.15;;;8.00;99.90;;;;;;5077061;28;20044;-57
2022/09/29 07:45:17;;;;;;;19.58;14.18;;;8.00;99.90;;;;;;5077048;28;20085;-58
2022/09/29 07:47:42;;;;;;;19.27;14.73;;;8.00;99.90;;;;;;5077185;28;20136;-57
2022/09/29 07:50:08;;;;;;;23.05;16.08;;;8.10;99.90;;;;;;5072617;28;20060;-58
2022/09/29 07:52:34;;;;;;;23.08;15.95;;;8.10;99.90;;;;;;5057538;28;20041;-58
2022/09/29 07:55:00;;;;;;;21.27;15.00;;;8.30;99.90;;;;;;5056033;28;20045;-58
2022/09/29 07:57:26;;;;;;;21.88;15.93;;;8.40;99.90;;;;;;5057258;28;20537;-58
2022/09/29 07:59:53;;;;;;;23.20;16.30;;;8.40;99.90;;;;;;5071755;28;20055;-57
2022/09/29 08:02:20;;;;;;;23.23;16.35;;;8.50;99.90;;;;;;5076881;28;20044;-57
2022/09/29 08:04:45;;;;;;;24.10;17.13;;;8.70;99.90;;;;;;5076667;28;20049;-57
2022/09/29 08:07:11;;;;;;;27.40;17.92;;;8.80;99.90;;;;;;5075122;28;20045;-57
2022/09/29 08:09:37;;;;;;;23.45;17.60;;;8.90;99.90;;;;;;5076710;28;20036;-57
2022/09/29 08:12:02;;;;;;;27.40;18.63;;;9.00;99.90;;;;;;5075799;28;20037;-58
2022/09/29 08:14:28;;;;;;;27.00;17.88;;;9.10;99.90;;;;;;5077061;28;20068;-57
2022/09/29 08:16:54;;;;;;;27.90;19.00;;;9.30;99.90;;;;;;5075206;28;20040;-57
2022/09/29 08:19:19;;;;;;;28.27;19.23;;;9.20;99.90;;;;;;5075834;28;20043;-57
2022/09/29 08:21:48;;;;;;;28.80;20.30;;;9.50;99.90;;;;;;5076345;28;20531;-57
2022/09/29 08:24:16;;;;;;;32.67;21.13;;;9.50;99.90;;;;;;5075541;28;20044;-58
2022/09/29 08:26:42;;;;;;;28.42;19.75;;;9.70;99.90;;;;;;5076062;28;20051;-57
2022/09/29 08:29:08;;;;;;;32.03;21.85;;;9.80;99.90;;;;;;5074600;28;20044;-57
2022/09/29 08:31:36;;;;;;;36.00;23.80;;;9.90;99.90;;;;;;5074650;28;20097;-57
2022/09/29 08:34:01;;;;;;;35.15;23.50;;;9.90;99.90;;;;;;5075246;28;20040;-56
2022/09/29 08:36:27;;;;;;;32.78;23.33;;;10.00;99.90;;;;;;5076331;28;20475;-57
2022/09/29 08:38:55;;;;;;;32.92;23.13;;;10.10;99.90;;;;;;5075305;28;20052;-57
2022/09/29 08:41:20;;;;;;;34.67;22.98;;;10.30;99.90;;;;;;5075495;28;20033;-56
2022/09/29 08:43:48;;;;;;;32.95;22.70;;;10.40;99.90;;;;;;5075644;28;20079;-57
2022/09/29 08:46:38;;;;;;;30.80;21.80;;;10.50;99.90;;;;;;5074970;28;20036;-58
2022/09/29 08:49:11;;;;;;;30.95;21.40;;;10.50;99.90;;;;;;5075206;28;20048;-58
2022/09/29 08:51:48;;;;;;;29.45;21.70;;;10.40;99.90;;;;;;5070004;28;20049;-57
2022/09/29 08:54:32;;;;;;;27.27;19.52;;;10.50;99.90;;;;;;5071289;28;20048;-58
2022/09/29 08:56:59;;;;;;;30.30;20.80;;;10.50;99.90;;;;;;5073245;28;20048;-57
2022/09/29 08:59:27;;;;;;;28.45;21.10;;;10.60;99.90;;;;;;5075706;28;20528;-58
2022/09/29 09:02:23;;;;;;;29.80;20.73;;;10.70;99.90;;;;;;5076966;28;20091;-58
2022/09/29 09:05:01;;;;;;;27.70;19.70;;;11.00;99.90;;;;;;5070589;28;20115;-57
2022/09/29 09:07:26;;;;;;;22.90;16.60;;;11.00;99.90;;;;;;5078320;28;20071;-57
2022/09/29 09:10:13;;;;;;;22.23;15.85;;;10.90;99.90;;;;;;5079098;28;20036;-58
2022/09/29 09:12:55;;;;;;;23.95;16.55;;;11.00;99.90;;;;;;5077041;28;20144;-57
2022/09/29 09:15:32;;;;;;;20.63;13.98;;;11.30;99.90;;;;;;5077558;28;20503;-57
2022/09/29 09:18:23;;;;;;;24.00;16.05;;;11.20;99.90;;;;;;5074386;28;20045;-57
2022/09/29 09:20:57;;;;;;;21.80;13.90;;;11.40;99.90;;;;;;5066836;28;20049;-58
2022/09/29 09:23:45;;;;;;;19.67;12.90;;;11.50;99.90;;;;;;5079516;28;20104;-58
2022/09/29 09:26:12;;;;;;;18.08;11.70;;;11.60;99.90;;;;;;5077392;28;20040;-57
2022/09/29 09:28:50;;;;;;;17.77;11.52;;;11.80;99.90;;;;;;5078208;28;20049;-58
2022/09/29 09:31:30;;;;;;;15.82;10.45;;;11.70;99.90;;;;;;5078872;28;20074;-57
2022/09/29 09:34:13;;;;;;;15.57;10.20;;;11.70;99.90;;;;;;5078652;28;20070;-60
2022/09/29 09:36:50;;;;;;;14.85;9.63;;;11.90;99.90;;;;;;5078543;28;20058;-58
2022/09/29 09:39:22;;;;;;;16.25;9.65;;;11.90;99.90;;;;;;5078082;28;20051;-57
2022/09/29 09:41:51;;;;;;;13.65;7.90;;;12.10;99.90;;;;;;5058368;28;20056;-58
2022/09/29 09:44:24;;;;;;;12.80;6.88;;;12.10;99.90;;;;;;5058683;28;20044;-57
2022/09/29 09:47:33;;;;;;;11.13;6.55;;;12.20;99.90;;;;;;5056827;28;20059;-58
2022/09/29 09:50:02;;;;;;;10.50;5.25;;;12.20;99.90;;;;;;5059542;28;20048;-58
2022/09/29 09:52:46;;;;;;;9.90;5.80;;;12.30;99.90;;;;;;5077411;28;20068;-57
2022/09/29 09:55:19;;;;;;;8.65;4.55;;;12.60;99.90;;;;;;5077865;28;20040;-57
2022/09/29 09:58:27;;;;;;;7.22;4.15;;;12.50;99.90;;;;;;5078901;28;20544;-58
2022/09/29 10:01:01;;;;;;;9.13;5.55;;;12.60;99.90;;;;;;5078893;28;20053;-58
2022/09/29 10:03:28;;;;;;;11.00;5.10;;;12.60;99.90;;;;;;5076778;28;20055;-58
2022/09/29 10:05:54;;;;;;;8.30;4.40;;;12.70;99.90;;;;;;5078520;28;20071;-58
2022/09/29 10:08:38;;;;;;;8.55;4.07;;;12.80;99.90;;;;;;5078360;28;20340;-58
2022/09/29 10:11:31;;;;;;;8.90;4.00;;;12.80;99.90;;;;;;5077918;28;20127;-58
2022/09/29 10:14:14;;;;;;;6.72;2.78;;;12.90;99.90;;;;;;5077122;28;20049;-57
2022/09/29 10:17:06;;;;;;;9.00;4.25;;;13.00;99.90;;;;;;5077836;28;20113;-58
2022/09/29 10:19:51;;;;;;;9.05;4.30;;;13.10;99.90;;;;;;5078043;28;20052;-58
2022/09/29 10:22:18;;;;;;;8.13;4.15;;;13.10;99.90;;;;;;5077310;28;20059;-57
2022/09/29 10:24:44;;;;;;;6.75;3.60;;;13.10;99.90;;;;;;5077485;28;20100;-58
2022/09/29 10:27:16;;;;;;;8.77;4.22;;;13.20;99.90;;;;;;5078752;28;20046;-57
2022/09/29 10:29:48;;;;;;;7.05;4.03;;;13.40;99.90;;;;;;5077989;28;20044;-58
2022/09/29 10:32:21;;;;;;;9.40;3.50;;;13.30;99.90;;;;;;5078619;28;20064;-58
2022/09/29 10:34:53;;;;;;;7.70;3.47;;;13.10;99.90;;;;;;5078232;28;20048;-57
2022/09/29 10:37:24;;;;;;;;;;;13.10;99.90;;;;;;5075987;28;20044;-58
2022/09/29 10:40:03;;;;;;;8.17;3.87;;;13.30;99.90;;;;;;5077154;28;20385;-57
2022/09/29 10:42:35;;;;;;;7.93;3.30;;;13.20;99.90;;;;;;5074844;28;20040;-58
2022/09/29 10:45:01;;;;;;;;;;;13.30;99.90;;;;;;5078836;28;20051;-58
2022/09/29 10:47:27;;;;;;;5.95;2.63;;;13.20;99.90;;;;;;5077824;28;19970;-58
2022/09/29 10:50:14;;;;;;;5.13;2.25;;;13.30;99.90;;;;;;5077009;28;20037;-60
2022/09/29 10:52:55;;;;;;;7.45;2.00;;;13.60;99.90;;;;;;5078691;28;20104;-58
2022/09/29 10:55:24;;;;;;;5.43;1.88;;;13.60;99.90;;;;;;5078335;28;20040;-57
2022/09/29 10:57:52;;;;;;;5.70;2.05;;;13.70;99.90;;;;;;5081755;28;20047;-58
2022/09/29 11:00:37;;;;;;;5.65;1.95;;;13.60;99.90;;;;;;5081181;28;20048;-57
2022/09/29 11:03:25;;;;;;;4.35;1.73;;;13.70;99.90;;;;;;5078090;28;20123;-58
2022/09/29 11:06:12;;;;;;;8.27;2.78;;;13.90;99.90;;;;;;5079302;28;20036;-58
2022/09/29 11:09:00;;;;;;;5.55;1.98;;;13.70;99.90;;;;;;5080617;28;20047;-58
2022/09/29 11:11:38;;;;;;;5.63;2.20;;;13.80;99.90;;;;;;5081252;28;20040;-58
2022/09/29 11:14:04;;;;;;;5.22;2.13;;;14.00;99.90;;;;;;5081989;28;20127;-58
2022/09/29 11:16:50;;;;;;;6.18;2.35;;;13.90;99.90;;;;;;5080483;28;20052;-58
2022/09/29 11:19:15;;;;;;;6.72;2.20;;;14.10;99.90;;;;;;5081655;28;20040;-58
2022/09/29 11:21:41;;;;;;;4.45;1.73;;;14.20;99.90;;;;;;5080569;28;20073;-57
2022/09/29 11:24:31;;;;;;;5.38;1.90;;;14.30;99.90;;;;;;5080790;28;20470;-58
2022/09/29 11:27:25;;;;;;;4.72;1.77;;;14.50;99.90;;;;;;5081966;28;20543;-58
2022/09/29 11:30:09;;;;;;;4.28;1.70;;;14.50;99.90;;;;;;5078986;28;20048;-58
2022/09/29 11:33:13;;;;;;;3.28;1.38;;;14.60;99.90;;;;;;5079339;28;20123;-59
2022/09/29 11:35:45;;;;;;;2.75;1.10;;;14.60;99.90;;;;;;5080769;28;20512;-59
2022/09/29 11:38:32;;;;;;;3.63;1.38;;;14.90;99.90;;;;;;5078447;28;20458;-59
2022/09/29 11:41:15;;;;;;;5.97;1.77;;;15.00;99.90;;;;;;5080652;28;20075;-59
2022/09/29 11:43:59;;;;;;;11.10;2.38;;;15.00;99.90;;;;;;5081288;28;20653;-58
2022/09/29 11:46:44;;;;;;;3.90;1.23;;;15.10;99.90;;;;;;5080106;28;20066;-58
2022/09/29 11:49:31;;;;;;;3.42;1.30;;;15.00;99.90;;;;;;5081444;28;20417;-59
2022/09/29 11:52:34;;;;;;;3.65;1.30;;;15.10;99.90;;;;;;5079724;28;20500;-58
2022/09/29 11:55:26;;;;;;;2.92;0.77;;;15.10;99.90;;;;;;5080280;28;20083;-58
2022/09/29 11:58:10;;;;;;;2.55;0.93;;;15.30;99.90;;;;;;5081388;28;20227;-58
2022/09/29 12:00:48;;;;;;;2.22;0.80;;;15.40;99.90;;;;;;5080661;28;20082;-58
2022/09/29 12:03:46;;;;;;;2.30;0.70;;;15.10;99.90;;;;;;5079100;28;20052;-59
2022/09/29 12:06:32;;;;;;;2.17;0.75;;;15.00;99.90;;;;;;5081131;28;20072;-58
2022/09/29 12:09:18;;;;;;;1.42;0.70;;;14.90;99.90;;;;;;5079834;28;20059;-58
2022/09/29 12:11:56;;;;;;;3.60;1.10;;;14.90;99.90;;;;;;5079600;28;20076;-59
2022/09/29 12:14:47;;;;;;;3.63;1.00;;;14.60;99.90;;;;;;5080818;28;20052;-59
2022/09/29 12:17:17;;;;;;;1.95;0.88;;;14.50;99.90;;;;;;5080185;28;20044;-58
2022/09/29 12:19:47;;;;;;;2.40;0.90;;;14.40;99.90;;;;;;5080208;28;20090;-59
2022/09/29 12:22:18;;;;;;;2.45;1.15;;;14.30;99.90;;;;;;5080253;28;20109;-58
2022/09/29 12:24:50;;;;;;;2.33;0.80;;;14.20;99.90;;;;;;5078371;28;20045;-59
2022/09/29 12:27:23;;;;;;;4.13;1.10;;;14.10;99.90;;;;;;5080836;28;20044;-58
2022/09/29 12:30:01;;;;;;;1.77;0.80;;;14.00;99.90;;;;;;5079824;28;20522;-58
2022/09/29 12:32:38;;;;;;;2.30;0.80;;;14.00;99.90;;;;;;5080249;28;20045;-59
2022/09/29 12:35:18;;;;;;;1.77;0.80;;;14.00;99.90;;;;;;5079879;28;20040;-58
2022/09/29 12:37:53;;;;;;;3.30;0.90;;;14.00;99.90;;;;;;5079528;28;20463;-58
2022/09/29 12:40:21;;;;;;;3.25;0.73;;;14.00;99.90;;;;;;5079796;28;20049;-59
2022/09/29 12:43:10;;;;;;;1.55;0.75;;;14.00;99.90;;;;;;5079412;28;20036;-58
2022/09/29 12:46:10;;;;;;;3.42;1.00;;;14.00;99.90;;;;;;5079364;28;20059;-59
2022/09/29 12:49:02;;;;;;;2.97;0.80;;;14.00;99.90;;;;;;5080031;28;20207;-58
2022/09/29 12:51:41;;;;;;;4.00;1.00;;;14.00;99.90;;;;;;5063383;28;20565;-58
2022/09/29 12:54:13;;;;;;;3.53;1.00;;;13.90;99.90;;;;;;5058431;28;20041;-58
2022/09/29 12:56:45;;;;;;;1.58;0.65;;;13.80;99.90;;;;;;5058438;28;20497;-58
2022/09/29 12:59:28;;;;;;;1.30;0.70;;;13.80;99.90;;;;;;5057588;28;20057;-59
2022/09/29 13:01:56;;;;;;;6.70;0.80;;;13.70;99.90;;;;;;5059420;28;20037;-58
2022/09/29 13:04:28;;;;;;;2.80;0.80;;;13.80;99.90;;;;;;5059402;28;20045;-58
2022/09/29 13:07:10;;;;;;;2.95;0.60;;;13.90;99.90;;;;;;5059493;28;20052;-58
2022/09/29 13:09:54;;;;;;;;;;;13.80;99.90;;;;;;5060371;28;20120;-58
2022/09/29 13:12:41;;;;;;;4.32;0.90;;;13.80;99.90;;;;;;5059069;28;19986;-58
2022/09/29 13:15:18;;;;;;;6.85;1.23;;;13.70;99.90;;;;;;5059583;28;20045;-58